Time;durP1;ratioP1;P1;durP2;ratioP2;P2;SDS_P1;SDS_P2;PMS_P1;PMS_P2;Temp;Humidity;BMP_temperature;BMP_pressure;BME280_temperature;BME280_humidity;BME280_pressure;Samples;Min_cycle;Max_cycle;Signal;HPM_P1;HPM_P2
2022/12/16 00:00:46;;;;;;;33.57;22.70;;;1.00;95.60;;;;;;5038021;28;20444;-88
2022/12/16 00:03:11;;;;;;;34.63;22.63;;;1.10;95.60;;;;;;5020561;28;20428;-87
2022/12/16 00:05:37;;;;;;;35.97;22.47;;;1.10;95.70;;;;;;5004661;28;20456;-88
2022/12/16 00:08:03;;;;;;;27.30;18.50;;;1.10;95.70;;;;;;5020772;28;20403;-88
2022/12/16 00:10:51;;;;;;;36.35;20.70;;;1.10;95.90;;;;;;5037066;28;20420;-88
2022/12/16 00:13:15;;;;;;;36.38;19.90;;;1.00;95.50;;;;;;5005130;28;20417;-87
2022/12/16 00:15:40;;;;;;;33.97;19.33;;;1.00;95.60;;;;;;5036799;28;20419;-87
2022/12/16 00:18:06;;;;;;;36.30;19.95;;;0.90;95.60;;;;;;5037373;28;20421;-88
2022/12/16 00:20:31;;;;;;;33.55;18.00;;;0.90;95.60;;;;;;5036969;28;20808;-88
2022/12/16 00:22:57;;;;;;;24.70;15.20;;;0.80;95.50;;;;;;5003548;28;20460;-87
2022/12/16 00:25:22;;;;;;;26.92;13.98;;;0.70;95.50;;;;;;5036848;28;20401;-88
2022/12/16 00:27:48;;;;;;;24.80;14.93;;;0.70;95.40;;;;;;5036717;28;20761;-88
2022/12/16 00:30:14;;;;;;;29.43;15.90;;;0.60;95.40;;;;;;5021035;28;20405;-87
2022/12/16 00:32:39;;;;;;;26.23;15.17;;;0.60;95.40;;;;;;5036305;28;20504;-87
2022/12/16 00:35:05;;;;;;;23.23;14.18;;;0.80;95.60;;;;;;5037227;28;20478;-87
2022/12/16 00:37:31;;;;;;;28.30;15.68;;;0.50;95.40;;;;;;5036235;28;20417;-87
2022/12/16 00:39:57;;;;;;;23.70;13.85;;;0.40;95.50;;;;;;5020208;28;20456;-87
2022/12/16 00:42:22;;;;;;;25.60;13.33;;;0.40;95.50;;;;;;5036261;28;20923;-87
2022/12/16 00:44:48;;;;;;;23.73;12.87;;;0.40;95.90;;;;;;5036411;28;20493;-87
2022/12/16 00:47:13;;;;;;;26.20;13.38;;;0.40;95.40;;;;;;5036702;28;20440;-86
2022/12/16 00:49:39;;;;;;;23.43;11.10;;;0.30;95.40;;;;;;5019590;28;20463;-87
2022/12/16 00:52:05;;;;;;;19.40;11.27;;;0.30;95.60;;;;;;5037068;28;20436;-86
2022/12/16 00:54:30;;;;;;;21.90;10.80;;;0.30;95.50;;;;;;5002197;28;20829;-87
2022/12/16 00:56:56;;;;;;;19.45;10.85;;;0.30;95.50;;;;;;5036773;28;20440;-88
2022/12/16 00:59:21;;;;;;;20.43;10.30;;;0.20;95.30;;;;;;5036331;28;20907;-88
2022/12/16 01:01:47;;;;;;;18.10;10.10;;;0.20;95.30;;;;;;5019982;28;20463;-88
2022/12/16 01:04:12;;;;;;;19.20;10.38;;;0.20;95.40;;;;;;5036182;28;20409;-88
2022/12/16 01:06:38;;;;;;;16.67;9.13;;;0.20;95.30;;;;;;5036181;28;20409;-87
2022/12/16 01:09:04;;;;;;;17.17;8.93;;;0.20;95.40;;;;;;5036740;28;20980;-87
2022/12/16 01:11:29;;;;;;;15.55;8.43;;;0.20;95.10;;;;;;5035485;28;20440;-86
2022/12/16 01:13:55;;;;;;;14.60;8.07;;;0.20;94.90;;;;;;5037064;28;20922;-89
2022/12/16 01:16:21;;;;;;;16.57;8.90;;;0.20;94.90;;;;;;5002267;28;20409;-87
2022/12/16 01:18:46;;;;;;;13.27;7.82;;;0.20;94.80;;;;;;5036360;28;20397;-88
2022/12/16 01:21:14;;;;;;;13.88;8.15;;;0.20;94.80;;;;;;5018774;28;20455;-88
2022/12/16 01:23:40;;;;;;;15.00;8.70;;;0.20;94.50;;;;;;5035555;28;20419;-86
2022/12/16 01:26:05;;;;;;;13.67;7.47;;;0.10;94.40;;;;;;5036351;28;20421;-87
2022/12/16 01:28:31;;;;;;;14.80;8.80;;;0.10;94.50;;;;;;5035776;28;20448;-87
2022/12/16 01:31:00;;;;;;;13.20;7.75;;;0.10;94.40;;;;;;5019574;28;20432;-86
2022/12/16 01:33:28;;;;;;;14.13;8.48;;;0.10;94.40;;;;;;5035042;28;20404;-86
2022/12/16 01:36:02;;;;;;;15.88;8.25;;;0.10;94.30;;;;;;5002440;28;20499;-87
2022/12/16 01:38:28;;;;;;;14.55;8.80;;;0.00;94.30;;;;;;5035418;28;20462;-87
2022/12/16 01:40:54;;;;;;;12.60;7.90;;;-0.10;94.30;;;;;;5035648;28;20431;-87
2022/12/16 01:43:24;;;;;;;13.63;7.83;;;-0.10;94.30;;;;;;5035769;28;20409;-87
2022/12/16 01:45:53;;;;;;;14.73;8.55;;;-0.10;93.70;;;;;;5018579;28;20401;-88
2022/12/16 01:48:29;;;;;;;14.82;8.60;;;-0.20;93.40;;;;;;5036860;28;20405;-87
2022/12/16 01:51:00;;;;;;;15.43;8.73;;;-0.20;93.50;;;;;;5034880;28;20467;-87
2022/12/16 01:53:25;;;;;;;14.82;9.70;;;-0.20;93.40;;;;;;5036096;28;20808;-87
2022/12/16 01:55:54;;;;;;;15.73;9.23;;;-0.20;93.60;;;;;;5035296;28;20496;-88
2022/12/16 01:58:23;;;;;;;18.67;10.48;;;-0.10;93.80;;;;;;5035599;28;20401;-87
2022/12/16 02:00:49;;;;;;;15.87;9.87;;;-0.10;93.90;;;;;;5019253;28;20412;-87
2022/12/16 02:03:15;;;;;;;15.77;11.10;;;-0.10;93.90;;;;;;5035119;28;20871;-88
2022/12/16 02:05:43;;;;;;;16.33;10.52;;;0.00;93.90;;;;;;5036032;28;20428;-87
2022/12/16 02:08:09;;;;;;;17.30;11.68;;;0.00;93.90;;;;;;5038172;28;20404;-87
2022/12/16 02:10:43;;;;;;;16.97;10.93;;;0.00;94.00;;;;;;5039398;28;20746;-87
2022/12/16 02:13:22;;;;;;;18.75;11.82;;;-0.10;94.10;;;;;;5038891;28;20417;-87
2022/12/16 02:16:09;;;;;;;16.83;10.47;;;-0.10;94.20;;;;;;5038951;28;20973;-87
2022/12/16 02:18:41;;;;;;;17.23;11.43;;;0.00;94.40;;;;;;5039478;28;20504;-87
2022/12/16 02:21:34;;;;;;;17.13;10.95;;;0.00;94.20;;;;;;5038673;28;20447;-87
2022/12/16 02:24:25;;;;;;;16.50;10.00;;;0.00;94.20;;;;;;5039000;28;20424;-87
2022/12/16 02:27:21;;;;;;;16.30;9.52;;;0.00;94.20;;;;;;5039194;28;20421;-86
2022/12/16 02:30:05;;;;;;;13.83;9.17;;;0.10;94.20;;;;;;5038312;28;20412;-87
2022/12/16 02:32:31;;;;;;;21.73;12.48;;;0.20;94.20;;;;;;5022310;28;20830;-86
2022/12/16 02:35:19;;;;;;;19.47;11.97;;;0.30;94.40;;;;;;5038338;28;20417;-87
2022/12/16 02:38:01;;;;;;;20.77;11.50;;;0.30;94.70;;;;;;5038034;28;20418;-86
2022/12/16 02:40:35;;;;;;;15.10;9.70;;;0.30;94.50;;;;;;5039135;28;20447;-86
2022/12/16 02:43:09;;;;;;;15.82;9.98;;;0.40;94.40;;;;;;5038194;28;20409;-89
2022/12/16 02:45:36;;;;;;;16.37;10.00;;;0.40;94.50;;;;;;5038873;28;20814;-87
2022/12/16 02:48:01;;;;;;;15.20;8.10;;;0.40;94.30;;;;;;5038465;28;20826;-86
2022/12/16 02:50:32;;;;;;;15.70;8.10;;;0.60;94.10;;;;;;5021939;28;20956;-87
2022/12/16 02:53:00;;;;;;;13.50;8.47;;;0.50;93.60;;;;;;5005554;28;20514;-87
2022/12/16 02:55:49;;;;;;;12.70;8.13;;;0.60;93.60;;;;;;5021009;28;20511;-86
2022/12/16 02:58:34;;;;;;;16.15;9.52;;;0.60;93.40;;;;;;5038633;28;20441;-87
2022/12/16 03:01:12;;;;;;;16.38;9.75;;;0.60;93.80;;;;;;5037913;28;20428;-87
2022/12/16 03:03:46;;;;;;;17.10;10.93;;;0.70;94.10;;;;;;5038241;28;20833;-86
2022/12/16 03:06:16;;;;;;;18.67;11.30;;;0.70;94.50;;;;;;5022734;28;20424;-86
2022/12/16 03:08:46;;;;;;;15.70;9.73;;;0.70;94.30;;;;;;5038071;28;20900;-86
2022/12/16 03:11:13;;;;;;;14.73;8.27;;;0.70;94.50;;;;;;5038124;28;20448;-86
2022/12/16 03:13:45;;;;;;;15.10;9.02;;;0.70;93.80;;;;;;5037791;28;20424;-87
2022/12/16 03:16:13;;;;;;;12.18;7.45;;;0.70;93.50;;;;;;5038080;28;20799;-87
2022/12/16 03:18:42;;;;;;;13.63;7.88;;;0.70;93.40;;;;;;5021489;28;20408;-87
2022/12/16 03:21:09;;;;;;;15.02;9.00;;;0.80;93.30;;;;;;5037216;28;20523;-87
2022/12/16 03:23:46;;;;;;;14.27;9.02;;;0.70;93.60;;;;;;5038109;28;20487;-87
2022/12/16 03:26:18;;;;;;;17.08;9.38;;;0.60;93.80;;;;;;5037080;28;20420;-87
2022/12/16 03:28:58;;;;;;;17.38;9.38;;;0.60;93.70;;;;;;5037919;28;20896;-87
2022/12/16 03:31:48;;;;;;;17.88;9.70;;;0.50;93.90;;;;;;5004305;28;20971;-87
2022/12/16 03:34:35;;;;;;;13.55;7.18;;;0.50;94.20;;;;;;5020346;28;20413;-86
2022/12/16 03:37:07;;;;;;;18.43;9.30;;;0.50;94.10;;;;;;5037899;28;20947;-87
2022/12/16 03:39:38;;;;;;;13.57;7.68;;;0.50;94.20;;;;;;5036848;28;20420;-87
2022/12/16 03:42:05;;;;;;;14.80;8.05;;;0.50;93.80;;;;;;5004090;28;20420;-87
2022/12/16 03:44:33;;;;;;;10.23;6.35;;;0.50;93.50;;;;;;5037678;28;20404;-87
2022/12/16 03:46:58;;;;;;;9.02;5.70;;;0.60;93.30;;;;;;5036771;28;20431;-87
2022/12/16 03:49:25;;;;;;;7.07;5.20;;;0.60;93.10;;;;;;5037956;28;21081;-86
2022/12/16 03:51:53;;;;;;;8.75;5.07;;;0.60;92.90;;;;;;5037057;28;20433;-85
2022/12/16 03:54:18;;;;;;;8.05;5.28;;;0.80;92.80;;;;;;5021061;28;20828;-87
2022/12/16 03:56:44;;;;;;;7.95;4.78;;;0.80;92.30;;;;;;5020164;28;20501;-87
2022/12/16 03:59:10;;;;;;;9.57;5.38;;;0.80;91.80;;;;;;5037921;28;20408;-87
2022/12/16 04:01:36;;;;;;;8.57;5.20;;;0.80;92.00;;;;;;5037351;28;20416;-86
2022/12/16 04:04:02;;;;;;;9.95;6.18;;;0.80;92.00;;;;;;5036888;28;20984;-87
2022/12/16 04:06:28;;;;;;;8.73;5.90;;;0.90;91.90;;;;;;5021345;28;20416;-86
2022/12/16 04:08:54;;;;;;;7.07;5.60;;;1.00;92.10;;;;;;5036945;28;20752;-87
2022/12/16 04:25:40;;;;;;;10.13;7.60;;;1.20;92.60;;;;;;5023315;28;20468;-88
2022/12/16 04:28:09;;;;;;;12.15;7.70;;;1.20;92.80;;;;;;5023139;28;20399;-90
2022/12/16 04:30:34;;;;;;;11.50;7.93;;;1.20;92.90;;;;;;5022009;28;20491;-88
